This is the latest recevied weather packets stored in our database for station/object NR6G-5. If no packets are shown the sender has not sent any weather packets the latest 10 day(s).
| Time | Temp. | Humidity | Pressure | Rain* | Wind** | Luminosity | Snow |
|---|---|---|---|---|---|---|---|
| 1777962150 | 15.56° C | 62% | 1012.3 hPa | 0 mm | - | - | - |
| 1777961850 | 15.56° C | 60% | 1012.4 hPa | 0 mm | - | - | - |
| 1777961551 | 16.11° C | 59% | 1012.2 hPa | 0 mm | - | - | - |
| 1777961250 | 16.11° C | 59% | 1012.3 hPa | 0 mm | - | - | - |
| 1777960650 | 15.56° C | 58% | 1012.3 hPa | 0 mm | - | - | - |
| 1777960352 | 15.56° C | 56% | 1012.3 hPa | 0 mm | - | - | - |
| 1777960051 | 16.11° C | 55% | 1012.4 hPa | 0 mm | - | - | - |
| 1777959747 | 16.11° C | 54% | 1012.2 hPa | 0 mm | - | - | - |
| 1777959447 | 16.11° C | 54% | 1012.3 hPa | 0 mm | - | - | - |
| 1777959148 | 16.11° C | 54% | 1012.4 hPa | 0 mm | - | - | - |
| 1777958848 | 16.11° C | 54% | 1012.4 hPa | 0 mm | - | - | - |
| 1777958547 | 16.67° C | 54% | 1012.4 hPa | 0 mm | - | - | - |
| 1777958250 | 16.67° C | 54% | 1012.4 hPa | 0 mm | - | - | - |
| 1777957951 | 16.67° C | 53% | 1012.5 hPa | 0 mm | - | - | - |
| 1777957647 | 16.11° C | 54% | 1012.4 hPa | 0 mm | - | - | - |
| 1777957348 | 16.11° C | 54% | 1012.4 hPa | 0 mm | - | - | - |
| 1777957051 | 16.11° C | 54% | 1012.3 hPa | 0 mm | - | - | - |
| 1777956750 | 15.56° C | 56% | 1012.3 hPa | 0 mm | - | - | - |
| 1777953712 | 15.56° C | 58% | 1011.9 hPa | 0 mm | - | - | - |
| 1777953413 | 16.11° C | 57% | 1011.9 hPa | 0 mm | - | - | - |
| 1777943512 | 20.56° C | 45% | 1011.3 hPa | 0 mm | - | - | - |
| 1777942312 | 21.11° C | 44% | 1011.3 hPa | 0 mm | - | - | - |
| 1777940749 | 21.67° C | 41% | 1011.2 hPa | 0 mm | - | - | - |
| 1777940149 | 22.22° C | 40% | 1011.3 hPa | 0 mm | - | - | - |
| 1777935093 | 21.67° C | 44% | 1011.8 hPa | 0 mm | - | - | - |
* Rain latest hour (hover to see other rain measurements)
** Current wind speed in m/s (hover to see current wind gust speed)